DNKN/KAN METAR and TAF weather

Enter ICAO airport designator
Station Type Date Time Source
DNKN METAR 2019/02/22 17:00 UTC NOAA

DNKN 221700Z 19003KT CAVOK 34/08 Q1012 NOSIG


Station Type Date Time Source
DNKN Decoded METAR 2019/02/22 17:00 UTC NOAA

Kano, Nigeria (DNKN) 12-03N 008-32E 481M
Feb 22, 2019 - 12:00 PM EST / 2019.02.22 1700 UTC
Wind: from the S (190 degrees) at 3 MPH (3 KT):0
Visibility: greater than 7 mile(s):0
Temperature: 93 F (34 C)
Dew Point: 46 F (8 C)
Relative Humidity: 20%
Pressure (altimeter): 29.88 in. Hg (1012 hPa)
ob: DNKN 221700Z 19003KT CAVOK 34/08 Q1012 NOSIG
cycle: 17

Station Type Date Time Source
DNKN TAF 2019/02/21 18:21 UTC NOAA

TAF DNKN 211550Z 2118/2224 05008KT 7000 NSW NSC
TEMPO 2205/2209 5000 HZ


Example: see airport list